Time;durP1;ratioP1;P1;durP2;ratioP2;P2;SDS_P1;SDS_P2;PMS_P1;PMS_P2;Temp;Humidity;BMP_temperature;BMP_pressure;BME280_temperature;BME280_humidity;BME280_pressure;Samples;Min_cycle;Max_cycle;Signal;HPM_P1;HPM_P2
2022/06/24 00:01:41;;;;;;;3.78;2.97;;;22.10;67.10;;;;;;5072696;28;20048;-64
2022/06/24 00:04:08;;;;;;;5.65;3.00;;;22.10;67.60;;;;;;5073207;28;20049;-65
2022/06/24 00:06:46;;;;;;;5.15;3.08;;;22.00;67.90;;;;;;5073165;28;20047;-64
2022/06/24 00:09:13;;;;;;;5.88;3.10;;;22.00;68.20;;;;;;5073257;28;20048;-64
2022/06/24 00:11:39;;;;;;;8.45;3.08;;;22.00;68.80;;;;;;5054741;28;20044;-64
2022/06/24 00:14:13;;;;;;;4.97;2.90;;;21.90;69.30;;;;;;5055224;28;20186;-64
2022/06/24 00:16:56;;;;;;;6.25;3.35;;;21.90;70.40;;;;;;5054769;28;20052;-64
2022/06/24 00:19:24;;;;;;;4.13;2.97;;;21.50;79.50;;;;;;5073329;28;20415;-64
2022/06/24 00:22:08;;;;;;;4.50;2.88;;;21.70;72.10;;;;;;5072043;28;20052;-64
2022/06/24 00:24:36;;;;;;;3.83;2.83;;;21.70;73.20;;;;;;5072823;28;20351;-64
2022/06/24 00:27:04;;;;;;;4.30;3.10;;;21.50;73.90;;;;;;5038047;28;20049;-64
2022/06/24 00:29:32;;;;;;;7.78;3.22;;;21.50;74.60;;;;;;5071795;28;20055;-64
2022/06/24 00:32:06;;;;;;;7.32;3.10;;;21.50;75.60;;;;;;5072314;28;20056;-64
2022/06/24 00:34:38;;;;;;;6.43;3.10;;;21.40;76.10;;;;;;5072753;28;20071;-64
2022/06/24 00:37:30;;;;;;;5.10;3.08;;;21.30;76.20;;;;;;5072619;28;20059;-65
2022/06/24 00:39:59;;;;;;;5.05;3.05;;;21.30;76.90;;;;;;5072302;28;20084;-64
2022/06/24 00:42:26;;;;;;;5.93;3.35;;;21.20;77.60;;;;;;5054563;28;20055;-64
2022/06/24 00:45:02;;;;;;;7.55;3.10;;;21.20;77.80;;;;;;5054197;28;20047;-64
2022/06/24 00:47:29;;;;;;;11.55;3.40;;;21.10;77.50;;;;;;5072602;28;20080;-64
2022/06/24 00:49:58;;;;;;;7.35;3.25;;;21.30;83.30;;;;;;5072373;28;20045;-64
2022/06/24 00:52:24;;;;;;;7.28;3.13;;;21.10;77.30;;;;;;5072671;28;20114;-64
2022/06/24 00:54:49;;;;;;;10.85;3.05;;;21.10;77.00;;;;;;5071667;28;20045;-64
2022/06/24 00:57:15;;;;;;;7.45;3.35;;;21.10;76.50;;;;;;5072161;28;20048;-64
2022/06/24 00:59:42;;;;;;;7.72;3.10;;;21.20;82.00;;;;;;5071629;28;20041;-64
2022/06/24 01:02:08;;;;;;;6.72;3.20;;;21.40;81.50;;;;;;5090048;28;20052;-64
2022/06/24 01:04:35;;;;;;;6.10;3.35;;;21.20;75.00;;;;;;5092186;28;20376;-64
2022/06/24 01:07:01;;;;;;;6.82;3.45;;;21.30;74.60;;;;;;5083050;28;20059;-64
2022/06/24 01:09:27;;;;;;;4.97;3.50;;;21.30;74.20;;;;;;5101871;28;20494;-65
2022/06/24 01:11:53;;;;;;;4.38;3.22;;;21.30;73.70;;;;;;5091487;28;20043;-64
2022/06/24 01:14:19;;;;;;;5.65;3.50;;;21.40;73.50;;;;;;5092563;28;20146;-65
2022/06/24 01:16:45;;;;;;;5.55;3.35;;;21.40;82.40;;;;;;5073972;28;20135;-64
2022/06/24 01:19:13;;;;;;;6.03;3.38;;;21.40;73.10;;;;;;5072486;28;20032;-64
2022/06/24 01:21:41;;;;;;;8.48;3.67;;;21.40;79.80;;;;;;5071684;28;20132;-64
2022/06/24 01:24:18;;;;;;;5.38;3.47;;;21.40;73.00;;;;;;5071537;28;20045;-64
2022/06/24 01:26:47;;;;;;;9.40;3.30;;;21.40;73.00;;;;;;5071979;28;20040;-64
2022/06/24 01:29:14;;;;;;;7.45;3.90;;;21.40;72.90;;;;;;5071542;28;20055;-64
2022/06/24 01:31:40;;;;;;;8.70;3.30;;;21.40;72.80;;;;;;5071303;28;20044;-64
2022/06/24 01:34:08;;;;;;;7.38;3.47;;;21.40;72.80;;;;;;5080493;28;20044;-64
2022/06/24 01:36:34;;;;;;;7.55;3.30;;;21.40;72.80;;;;;;5092004;28;20119;-64
2022/06/24 01:39:00;;;;;;;8.43;3.47;;;21.30;72.70;;;;;;5056690;28;20127;-64
2022/06/24 01:41:25;;;;;;;5.90;3.60;;;21.30;72.80;;;;;;5091686;28;20051;-64
2022/06/24 01:43:51;;;;;;;5.72;3.58;;;21.30;73.00;;;;;;5091966;28;20040;-64
2022/06/24 01:46:17;;;;;;;7.97;3.40;;;21.30;73.10;;;;;;5073776;28;20392;-64
2022/06/24 01:48:42;;;;;;;8.82;3.60;;;21.30;73.10;;;;;;5073487;28;20044;-64
2022/06/24 01:51:13;;;;;;;5.40;3.55;;;21.30;73.20;;;;;;5091601;28;20514;-64
2022/06/24 01:53:39;;;;;;;5.88;3.28;;;21.20;73.40;;;;;;5091198;28;20118;-64
2022/06/24 01:56:05;;;;;;;8.35;3.60;;;21.20;73.50;;;;;;5091276;28;20047;-64
2022/06/24 01:58:30;;;;;;;4.57;3.22;;;21.20;73.80;;;;;;5091325;28;20095;-64
2022/06/24 02:00:56;;;;;;;10.57;3.80;;;21.20;73.90;;;;;;5091024;28;20052;-64
2022/06/24 02:03:21;;;;;;;5.90;3.30;;;21.10;74.00;;;;;;5091396;28;20070;-64
2022/06/24 02:05:47;;;;;;;5.25;3.50;;;21.10;74.00;;;;;;5072845;28;20075;-64
2022/06/24 02:08:14;;;;;;;6.32;3.40;;;21.20;81.40;;;;;;5089229;28;20066;-64
2022/06/24 02:13:28;;;;;;;7.65;3.40;;;21.00;75.50;;;;;;5063343;28;20131;-64
2022/06/24 02:15:55;;;;;;;8.55;3.60;;;21.90;82.70;;;;;;5052893;28;20048;-64
2022/06/24 02:18:22;;;;;;;4.93;3.53;;;21.10;82.90;;;;;;5071174;28;20182;-64
2022/06/24 02:20:49;;;;;;;7.50;3.50;;;20.40;83.90;;;;;;5069131;28;20044;-64
2022/06/24 02:23:15;;;;;;;4.97;3.60;;;21.00;75.20;;;;;;5053171;28;20076;-64
2022/06/24 02:25:41;;;;;;;7.97;3.55;;;21.00;75.10;;;;;;5070324;28;20044;-64
2022/06/24 02:28:07;;;;;;;10.40;3.55;;;21.10;82.90;;;;;;5071126;28;20095;-64
2022/06/24 02:30:33;;;;;;;6.88;3.70;;;21.00;75.20;;;;;;5070730;28;20041;-64
2022/06/24 02:32:59;;;;;;;8.25;3.50;;;21.00;75.20;;;;;;5070487;28;20063;-64
2022/06/24 02:35:25;;;;;;;6.22;3.40;;;21.00;75.00;;;;;;5052364;28;20400;-64
2022/06/24 02:37:50;;;;;;;10.75;3.35;;;21.00;75.00;;;;;;5035911;28;20491;-64
2022/06/24 02:43:00;;;;;;;8.30;3.50;;;21.10;75.20;;;;;;5070472;28;20399;-64
2022/06/24 02:45:26;;;;;;;7.07;3.22;;;21.10;74.90;;;;;;5071007;28;20044;-64
2022/06/24 02:47:51;;;;;;;6.78;3.30;;;21.10;82.70;;;;;;5070130;28;20109;-64
2022/06/24 02:50:17;;;;;;;8.05;3.45;;;21.10;75.00;;;;;;5069954;28;20041;-64
2022/06/24 02:52:43;;;;;;;5.30;3.28;;;21.10;75.00;;;;;;5070146;28;20119;-64
2022/06/24 02:55:09;;;;;;;8.20;3.45;;;21.10;75.10;;;;;;5070829;28;20076;-64
2022/06/24 02:57:35;;;;;;;8.55;3.40;;;21.10;81.10;;;;;;5085766;28;20055;-64
2022/06/24 03:00:00;;;;;;;7.07;3.40;;;21.10;75.10;;;;;;5110346;28;20395;-64
2022/06/24 03:02:26;;;;;;;7.03;3.40;;;21.10;75.30;;;;;;5110602;28;20039;-64
2022/06/24 03:04:52;;;;;;;6.10;3.40;;;21.10;84.60;;;;;;5091699;28;20051;-64
2022/06/24 03:07:17;;;;;;;7.95;3.42;;;21.10;75.80;;;;;;5110563;28;20562;-64
2022/06/24 03:09:43;;;;;;;12.65;3.10;;;21.10;75.90;;;;;;5110930;28;20376;-64
2022/06/24 03:12:10;;;;;;;5.15;3.30;;;21.10;76.20;;;;;;5110956;28;20248;-64
2022/06/24 03:14:35;;;;;;;5.85;3.50;;;21.00;76.70;;;;;;5111080;28;20047;-65
2022/06/24 03:17:01;;;;;;;6.20;3.20;;;21.00;84.50;;;;;;5109845;28;20036;-64
2022/06/24 03:19:27;;;;;;;6.40;3.13;;;21.00;78.10;;;;;;5110416;28;20039;-65
2022/06/24 03:21:52;;;;;;;3.78;3.10;;;21.00;79.00;;;;;;5109736;28;20127;-65
2022/06/24 03:24:19;;;;;;;6.30;3.40;;;21.00;80.10;;;;;;5111054;28;20430;-64
2022/06/24 03:26:44;;;;;;;6.80;3.10;;;21.00;90.40;;;;;;5110107;28;20119;-64
2022/06/24 03:29:10;;;;;;;5.78;3.20;;;20.90;82.00;;;;;;5110610;28;20440;-64
2022/06/24 03:31:36;;;;;;;8.95;3.40;;;21.00;90.80;;;;;;5110007;28;20449;-64
2022/06/24 03:34:01;;;;;;;5.45;3.22;;;20.90;82.80;;;;;;5113279;28;20093;-64
2022/06/24 03:36:27;;;;;;;5.13;3.28;;;20.90;83.30;;;;;;5114685;28;20402;-64
2022/06/24 03:38:52;;;;;;;5.22;3.47;;;20.90;83.40;;;;;;5113929;28;20076;-64
2022/06/24 03:41:18;;;;;;;7.03;3.63;;;20.90;83.10;;;;;;5114249;28;20043;-64
2022/06/24 03:43:44;;;;;;;5.90;3.10;;;20.90;82.70;;;;;;5113755;28;20059;-64
2022/06/24 03:46:09;;;;;;;5.07;3.38;;;20.90;90.60;;;;;;5114549;28;20124;-64
2022/06/24 03:48:35;;;;;;;10.15;3.72;;;21.20;90.10;;;;;;5113570;28;20078;-64
2022/06/24 03:51:01;;;;;;;4.13;3.40;;;21.00;83.50;;;;;;5113535;28;20048;-64
2022/06/24 03:53:26;;;;;;;6.63;3.40;;;21.10;83.50;;;;;;5114082;28;20051;-64
2022/06/24 03:55:52;;;;;;;8.98;3.58;;;21.10;89.70;;;;;;5095221;28;20035;-64
2022/06/24 03:58:19;;;;;;;6.07;3.67;;;21.20;83.10;;;;;;5114035;28;20387;-64
2022/06/24 04:00:45;;;;;;;5.72;3.60;;;21.20;83.40;;;;;;5094827;28;20051;-64
2022/06/24 04:03:11;;;;;;;8.52;3.65;;;21.20;83.60;;;;;;5113221;28;20078;-64
2022/06/24 04:05:36;;;;;;;6.85;3.33;;;21.40;83.20;;;;;;5114310;28;20486;-64
2022/06/24 04:08:02;;;;;;;6.40;3.70;;;21.80;82.00;;;;;;5113589;28;20043;-64
2022/06/24 04:10:28;;;;;;;6.10;3.55;;;23.10;85.30;;;;;;5113627;28;20044;-64
2022/06/24 04:12:54;;;;;;;7.50;3.30;;;22.80;78.00;;;;;;5078599;28;20486;-64
2022/06/24 04:15:19;;;;;;;7.40;3.55;;;24.70;83.70;;;;;;5095528;28;20054;-65
2022/06/24 04:17:47;;;;;;;5.82;3.60;;;23.60;75.00;;;;;;5112657;28;20047;-65
2022/06/24 04:20:17;;;;;;;6.88;3.63;;;23.80;80.20;;;;;;5113751;28;20541;-63
2022/06/24 04:22:44;;;;;;;7.10;3.42;;;24.20;78.90;;;;;;5113640;28;20043;-62
2022/06/24 04:25:11;;;;;;;7.65;3.22;;;24.20;72.60;;;;;;5078124;28;20043;-62
2022/06/24 04:27:37;;;;;;;9.50;3.20;;;24.30;72.70;;;;;;5113753;28;20048;-62
2022/06/24 04:30:05;;;;;;;7.00;3.30;;;24.30;72.90;;;;;;5078049;28;20079;-62
2022/06/24 04:32:31;;;;;;;7.75;3.28;;;24.30;73.10;;;;;;5094877;28;20043;-62
2022/06/24 04:34:56;;;;;;;9.43;3.10;;;26.00;73.70;;;;;;5094680;28;20479;-62
2022/06/24 04:37:22;;;;;;;9.90;3.50;;;24.60;70.90;;;;;;5113769;28;20048;-62
2022/06/24 04:39:48;;;;;;;6.00;3.60;;;24.60;69.60;;;;;;5112695;28;20044;-63
2022/06/24 04:42:14;;;;;;;14.43;3.80;;;24.10;76.90;;;;;;5113206;28;20048;-63
2022/06/24 04:44:40;;;;;;;12.80;3.78;;;24.20;70.40;;;;;;5111731;28;20039;-63
2022/06/24 04:47:05;;;;;;;14.38;4.30;;;24.90;81.40;;;;;;5112411;28;20104;-64
2022/06/24 04:49:32;;;;;;;5.72;4.22;;;23.90;71.80;;;;;;5113192;28;20063;-65
2022/06/24 04:51:58;;;;;;;10.45;4.68;;;23.90;82.80;;;;;;5112480;28;20078;-65
2022/06/24 04:54:24;;;;;;;11.45;5.78;;;23.90;74.00;;;;;;5113021;28;20083;-63
2022/06/24 04:56:49;;;;;;;10.90;5.97;;;24.20;75.60;;;;;;5112674;28;20058;-64
2022/06/24 04:59:16;;;;;;;17.20;7.60;;;24.60;76.30;;;;;;5113029;28;20428;-64
2022/06/24 05:01:41;;;;;;;10.32;8.02;;;24.80;79.50;;;;;;5111840;28;20440;-64
2022/06/24 05:04:07;;;;;;;13.85;8.20;;;24.60;85.70;;;;;;5112676;28;20051;-64
2022/06/24 05:06:33;;;;;;;12.70;8.45;;;24.30;89.90;;;;;;5113125;28;20044;-63
2022/06/24 05:08:59;;;;;;;17.15;8.55;;;23.90;93.20;;;;;;5112150;28;20103;-64
2022/06/24 05:11:25;;;;;;;12.20;7.65;;;;;;;;;;5401036;22;20052;-77
2022/06/24 05:13:51;;;;;;;12.00;7.85;;;;;;;;;;5094377;28;20052;-77
2022/06/24 05:16:18;;;;;;;13.13;7.63;;;;;;;;;;5078927;28;20135;-77
2022/06/24 05:18:43;;;;;;;13.43;7.07;;;22.80;99.90;;;;;;5074872;28;20188;-78
2022/06/24 05:21:09;;;;;;;13.52;6.72;;;23.50;99.90;;;;;;5078151;28;20080;-78
2022/06/24 05:23:35;;;;;;;10.73;6.35;;;22.50;99.90;;;;;;5075016;28;20555;-77
2022/06/24 05:26:00;;;;;;;48.28;9.65;;;22.40;99.90;;;;;;5073432;28;20044;-78
2022/06/24 05:28:29;;;;;;;19.08;6.13;;;22.30;99.90;;;;;;5075345;28;20058;-78
2022/06/24 05:30:58;;;;;;;9.57;5.60;;;22.20;99.90;;;;;;5047873;28;20040;-77
2022/06/24 05:33:24;;;;;;;10.10;5.30;;;21.80;99.90;;;;;;5054652;28;20471;-77
2022/06/24 05:35:54;;;;;;;10.70;5.65;;;21.90;99.90;;;;;;5071931;28;20048;-77
2022/06/24 05:38:23;;;;;;;10.38;5.20;;;21.70;99.90;;;;;;5054080;28;20048;-77
2022/06/24 05:40:50;;;;;;;10.68;6.60;;;21.70;99.90;;;;;;5053540;28;20045;-78
2022/06/24 05:43:16;;;;;;;8.57;5.10;;;21.70;99.90;;;;;;5083510;28;20051;-76
2022/06/24 05:45:42;;;;;;;8.07;5.10;;;21.60;99.90;;;;;;5093726;28;20052;-78
2022/06/24 05:48:08;;;;;;;11.85;5.22;;;22.10;99.90;;;;;;5093277;28;20557;-78
2022/06/24 05:50:37;;;;;;;8.85;4.90;;;21.50;99.90;;;;;;5074333;28;20052;-78
2022/06/24 05:55:48;;;;;;;13.90;5.10;;;21.50;99.90;;;;;;5074166;28;20414;-81
2022/06/24 05:58:13;;;;;;;10.98;5.05;;;21.50;99.90;;;;;;5058359;28;20780;-81
2022/06/24 06:00:39;;;;;;;7.45;5.00;;;21.50;99.90;;;;;;5075043;28;20048;-78
2022/06/24 06:03:05;;;;;;;8.95;5.00;;;21.20;99.90;;;;;;5074967;28;20106;-78
2022/06/24 06:05:30;;;;;;;9.13;5.38;;;22.00;99.90;;;;;;5076422;28;20051;-80
2022/06/24 06:07:56;;;;;;;11.05;6.00;;;21.50;99.90;;;;;;5095334;28;20058;-78
2022/06/24 06:10:25;;;;;;;8.70;5.57;;;21.40;99.90;;;;;;5074703;28;20382;-79
2022/06/24 06:12:51;;;;;;;9.63;5.28;;;21.50;99.90;;;;;;5074756;28;20040;-78
2022/06/24 06:15:16;;;;;;;9.07;5.55;;;21.50;99.90;;;;;;5074660;28;20048;-79
2022/06/24 06:17:42;;;;;;;11.93;5.60;;;21.60;99.90;;;;;;5092708;28;20649;-78
2022/06/24 06:20:08;;;;;;;10.38;5.32;;;21.50;99.90;;;;;;5093232;28;20090;-78
2022/06/24 06:22:34;;;;;;;9.70;5.28;;;21.50;99.90;;;;;;5074556;28;20052;-79
2022/06/24 06:25:03;;;;;;;7.97;5.35;;;21.50;99.90;;;;;;5074997;28;20059;-79
2022/06/24 06:27:29;;;;;;;12.15;5.72;;;21.20;99.90;;;;;;5057675;28;20044;-80
2022/06/24 06:29:55;;;;;;;9.38;5.78;;;21.40;99.90;;;;;;5074509;28;20084;-79
2022/06/24 06:32:21;;;;;;;10.90;5.68;;;21.40;99.90;;;;;;5092518;28;20044;-79
2022/06/24 06:34:47;;;;;;;17.23;8.10;;;21.40;99.90;;;;;;5057727;28;20079;-79
2022/06/24 06:37:12;;;;;;;12.27;6.32;;;21.30;99.90;;;;;;5074374;28;20053;-78
2022/06/24 06:39:38;;;;;;;10.32;5.55;;;21.30;99.90;;;;;;5092044;28;20410;-78
2022/06/24 06:42:04;;;;;;;9.30;5.63;;;21.30;99.90;;;;;;5058087;28;20135;-79
2022/06/24 06:44:30;;;;;;;10.65;5.78;;;20.90;99.90;;;;;;5092983;28;20178;-78
2022/06/24 06:46:56;;;;;;;9.48;5.78;;;21.80;99.90;;;;;;5074338;28;20067;-78
2022/06/24 06:49:21;;;;;;;7.45;5.70;;;21.20;99.90;;;;;;5074265;28;20044;-78
2022/06/24 06:51:47;;;;;;;15.25;6.53;;;20.90;99.90;;;;;;5091859;28;20067;-78
2022/06/24 06:54:15;;;;;;;9.65;6.35;;;21.10;99.90;;;;;;5074548;28;20055;-77
2022/06/24 06:56:41;;;;;;;9.82;6.20;;;21.20;99.90;;;;;;5073953;28;20666;-78
2022/06/24 06:59:07;;;;;;;8.07;5.68;;;20.30;99.90;;;;;;5074366;28;20066;-78
2022/06/24 07:01:32;;;;;;;11.63;5.90;;;21.10;99.90;;;;;;5092285;28;20040;-78
2022/06/24 07:03:58;;;;;;;11.75;6.32;;;21.10;99.90;;;;;;5092357;28;20052;-78
2022/06/24 07:06:24;;;;;;;9.85;6.20;;;22.20;99.90;;;;;;5091901;28;20371;-79
2022/06/24 07:08:49;;;;;;;13.43;6.45;;;20.80;99.90;;;;;;5079984;28;20378;-78
2022/06/24 07:11:18;;;;;;;10.27;6.35;;;20.90;99.90;;;;;;5080729;28;20056;-78
2022/06/24 07:13:45;;;;;;;9.50;7.00;;;20.90;99.90;;;;;;5080774;28;20417;-78
2022/06/24 07:16:11;;;;;;;10.85;7.00;;;20.90;99.90;;;;;;5080459;28;20058;-78
2022/06/24 07:18:36;;;;;;;10.38;6.32;;;20.90;99.90;;;;;;5078894;28;20052;-79
2022/06/24 07:21:02;;;;;;;11.27;6.80;;;21.20;99.90;;;;;;5060498;28;20048;-79
2022/06/24 07:23:29;;;;;;;10.10;7.43;;;20.80;99.90;;;;;;5078525;28;20072;-78
2022/06/24 07:25:58;;;;;;;12.48;7.88;;;20.80;99.90;;;;;;5077989;28;20055;-78
2022/06/24 07:28:25;;;;;;;12.55;8.45;;;21.30;99.90;;;;;;5078524;28;20072;-78
2022/06/24 07:30:51;;;;;;;13.93;9.52;;;20.80;99.90;;;;;;5060015;28;20044;-78
2022/06/24 07:33:17;;;;;;;12.30;9.35;;;19.90;99.90;;;;;;5078299;28;20095;-78
2022/06/24 07:35:43;;;;;;;11.82;8.25;;;20.50;99.90;;;;;;5078162;28;20100;-79
2022/06/24 07:38:09;;;;;;;13.52;7.55;;;21.60;99.90;;;;;;5044017;28;20480;-78
2022/06/24 07:40:36;;;;;;;12.13;8.00;;;22.20;99.90;;;;;;5060354;28;20136;-79
2022/06/24 07:43:02;;;;;;;12.43;9.15;;;20.90;99.90;;;;;;5078352;28;20682;-79
2022/06/24 07:45:27;;;;;;;12.55;9.45;;;20.90;99.90;;;;;;5043453;28;20056;-79
2022/06/24 07:47:53;;;;;;;13.13;9.30;;;20.90;99.90;;;;;;5078218;28;20048;-78
2022/06/24 07:50:19;;;;;;;11.82;9.27;;;20.90;99.90;;;;;;5060102;28;20383;-78
2022/06/24 07:52:44;;;;;;;15.18;10.05;;;20.90;99.90;;;;;;5078239;28;20047;-78
2022/06/24 07:57:54;;;;;;;15.00;10.30;;;21.00;99.90;;;;;;5078005;28;20571;-78
2022/06/24 08:00:20;;;;;;;12.80;9.98;;;21.00;99.90;;;;;;5076843;28;20123;-78
2022/06/24 08:02:46;;;;;;;14.80;9.73;;;21.00;99.90;;;;;;5078271;28;20487;-77
2022/06/24 08:05:12;;;;;;;13.38;9.88;;;21.30;99.90;;;;;;5078287;28;20131;-78
2022/06/24 08:07:37;;;;;;;15.18;11.48;;;20.90;99.90;;;;;;5078345;28;20067;-78
2022/06/24 08:10:06;;;;;;;13.43;10.50;;;21.00;99.90;;;;;;5060573;28;20048;-78
2022/06/24 08:12:32;;;;;;;14.45;11.15;;;20.90;99.90;;;;;;5059569;28;20052;-78
2022/06/24 08:14:57;;;;;;;15.30;11.00;;;21.00;99.90;;;;;;5077797;28;20052;-78
2022/06/24 08:17:23;;;;;;;12.90;10.70;;;20.90;99.90;;;;;;5078429;28;20047;-78
2022/06/24 08:19:49;;;;;;;16.75;11.23;;;20.90;99.90;;;;;;5074513;28;20044;-78
2022/06/24 08:22:14;;;;;;;14.93;11.07;;;20.90;99.90;;;;;;5056581;28;20136;-78
2022/06/24 08:24:40;;;;;;;15.48;12.07;;;20.60;99.90;;;;;;5057067;28;20052;-78
2022/06/24 08:27:06;;;;;;;16.20;12.20;;;20.80;99.90;;;;;;5056788;28;20503;-78
2022/06/24 08:29:32;;;;;;;15.48;12.55;;;20.90;99.90;;;;;;5074723;28;20647;-79
2022/06/24 08:31:57;;;;;;;19.92;13.35;;;20.80;99.90;;;;;;5057375;28;20068;-78
2022/06/24 08:34:23;;;;;;;15.27;12.00;;;20.70;99.90;;;;;;5057283;28;20116;-77
2022/06/24 08:36:48;;;;;;;17.08;12.18;;;20.70;99.90;;;;;;5076111;28;20089;-78
2022/06/24 08:39:14;;;;;;;18.08;12.93;;;;;;;;;;5039886;28;20052;-78
2022/06/24 08:41:45;;;;;;;21.77;14.02;;;20.70;99.90;;;;;;5056378;28;20051;-78
2022/06/24 08:44:11;;;;;;;36.17;15.23;;;20.70;99.90;;;;;;5040098;28;20053;-78
2022/06/24 08:46:39;;;;;;;31.08;14.55;;;20.70;99.90;;;;;;5056350;28;20040;-78
2022/06/24 08:49:06;;;;;;;20.08;14.82;;;23.50;99.90;;;;;;5074598;28;20359;-79
2022/06/24 08:51:34;;;;;;;15.60;13.02;;;20.70;99.90;;;;;;5074533;28;20059;-79
2022/06/24 08:54:02;;;;;;;22.38;14.55;;;20.70;99.90;;;;;;5056377;28;20048;-79
2022/06/24 08:56:28;;;;;;;19.17;14.07;;;;;;;;;;5039319;28;20052;-79
2022/06/24 08:58:54;;;;;;;16.20;13.70;;;20.80;99.90;;;;;;5056098;28;20522;-78
2022/06/24 09:01:21;;;;;;;18.40;13.35;;;20.80;99.90;;;;;;5038942;28;20499;-79
2022/06/24 09:03:48;;;;;;;14.40;12.55;;;20.90;99.90;;;;;;5074075;28;20036;-79
2022/06/24 09:06:15;;;;;;;17.27;13.38;;;20.80;99.90;;;;;;5073836;28;20057;-78
2022/06/24 09:08:49;;;;;;;15.50;12.73;;;23.10;99.90;;;;;;5055762;28;20067;-78
2022/06/24 09:11:15;;;;;;;16.70;11.55;;;21.20;99.90;;;;;;5055790;28;20053;-79
2022/06/24 09:13:48;;;;;;;19.10;12.57;;;20.70;99.90;;;;;;5056341;28;20056;-78
2022/06/24 09:16:17;;;;;;;16.08;12.90;;;20.80;99.90;;;;;;5076893;28;20179;-78
2022/06/24 09:18:50;;;;;;;17.17;13.18;;;20.80;99.90;;;;;;5056084;28;20048;-78
2022/06/24 09:21:24;;;;;;;16.98;13.23;;;20.80;99.90;;;;;;5073770;28;20102;-78
2022/06/24 09:23:52;;;;;;;18.42;14.77;;;20.80;99.90;;;;;;5055393;28;20470;-78
2022/06/24 09:26:31;;;;;;;29.85;14.60;;;20.70;99.90;;;;;;5055547;28;20048;-78
2022/06/24 09:28:57;;;;;;;25.08;15.93;;;20.70;99.90;;;;;;5040582;28;20048;-78
2022/06/24 09:31:28;;;;;;;32.28;16.17;;;21.40;99.90;;;;;;5055074;28;20431;-78
2022/06/24 09:33:55;;;;;;;23.48;15.77;;;22.10;99.90;;;;;;5055208;28;20083;-78
2022/06/24 09:36:24;;;;;;;16.35;13.30;;;20.70;99.90;;;;;;5055297;28;20040;-78
2022/06/24 09:39:04;;;;;;;16.52;12.73;;;20.70;99.90;;;;;;5073035;28;20088;-78
2022/06/24 09:41:40;;;;;;;16.83;12.40;;;20.70;99.90;;;;;;5055290;28;20049;-78
2022/06/24 09:44:06;;;;;;;15.10;12.98;;;20.70;99.90;;;;;;5055345;28;20052;-78
2022/06/24 09:46:32;;;;;;;15.55;12.93;;;20.60;99.90;;;;;;5038530;28;20561;-78
2022/06/24 09:49:10;;;;;;;13.82;10.90;;;20.70;99.90;;;;;;5054937;28;20056;-78
2022/06/24 09:51:36;;;;;;;11.18;6.05;;;20.70;99.90;;;;;;5055208;28;20506;-77
2022/06/24 09:54:05;;;;;;;12.40;4.70;;;20.50;99.90;;;;;;5054745;28;20124;-78
2022/06/24 09:56:31;;;;;;;11.85;4.10;;;20.20;99.90;;;;;;5054952;28;20059;-77
2022/06/24 10:01:42;;;;;;;5.43;3.00;;;20.10;99.90;;;;;;5072583;28;20564;-78
2022/06/24 10:04:15;;;;;;;6.18;3.15;;;19.80;99.90;;;;;;5072894;28;20048;-80
2022/06/24 10:06:46;;;;;;;4.90;2.85;;;19.90;99.90;;;;;;5054957;28;20060;-79
2022/06/24 10:09:12;;;;;;;5.97;2.85;;;19.70;99.90;;;;;;5072606;28;20101;-79
2022/06/24 10:11:43;;;;;;;5.38;3.00;;;20.00;99.90;;;;;;5038048;28;20155;-79
2022/06/24 10:14:11;;;;;;;6.43;2.90;;;;;;;;;;5072884;28;20045;-80
2022/06/24 10:16:38;;;;;;;7.30;2.97;;;19.60;99.90;;;;;;5054992;28;20049;-79
2022/06/24 10:19:06;;;;;;;4.13;2.60;;;19.50;99.90;;;;;;5054808;28;20044;-80
2022/06/24 10:21:32;;;;;;;4.32;2.80;;;19.50;99.90;;;;;;5072320;28;20052;-81
2022/06/24 10:23:59;;;;;;;2.67;2.33;;;;;;;;;;5072445;28;20060;-81
2022/06/24 10:26:29;;;;;;;4.05;2.47;;;19.40;99.90;;;;;;5053846;28;20055;-81
2022/06/24 10:29:04;;;;;;;4.63;2.30;;;19.80;99.90;;;;;;5072084;28;20091;-80
2022/06/24 10:31:48;;;;;;;5.05;2.67;;;19.80;99.90;;;;;;5055517;28;20102;-81
2022/06/24 10:34:22;;;;;;;5.28;2.80;;;22.70;99.90;;;;;;5058713;28;20063;-81
2022/06/24 10:36:49;;;;;;;4.67;2.97;;;;;;;;;;5037013;28;20489;-80
2022/06/24 10:39:16;;;;;;;4.45;3.17;;;19.30;99.90;;;;;;5071956;28;20455;-81
2022/06/24 10:41:43;;;;;;;4.03;2.95;;;20.00;99.90;;;;;;5053105;28;20072;-81
2022/06/24 10:44:22;;;;;;;6.50;3.17;;;19.10;99.90;;;;;;5053297;28;20132;-81
2022/06/24 10:47:08;;;;;;;6.03;3.45;;;19.10;99.90;;;;;;5036738;28;20084;-81
2022/06/24 10:49:52;;;;;;;5.35;3.47;;;19.30;99.90;;;;;;5071630;28;20048;-81
2022/06/24 10:52:36;;;;;;;4.25;3.30;;;19.50;99.90;;;;;;5054460;28;20052;-81
2022/06/24 10:57:59;;;;;;;5.28;3.40;;;19.30;99.90;;;;;;5072173;28;20110;-81
2022/06/24 11:00:26;;;;;;;5.50;3.10;;;19.30;99.90;;;;;;5053831;28;20055;-81
2022/06/24 11:03:22;;;;;;;6.38;3.40;;;20.80;99.90;;;;;;5054664;28;20049;-80
2022/06/24 11:05:55;;;;;;;5.20;3.50;;;19.90;99.90;;;;;;5041514;28;20282;-81
2022/06/24 11:08:23;;;;;;;5.10;3.70;;;18.80;99.90;;;;;;5043065;28;20087;-81
2022/06/24 11:10:51;;;;;;;5.65;4.00;;;19.20;99.90;;;;;;5072034;28;20048;-81
2022/06/24 11:13:18;;;;;;;6.97;4.00;;;19.20;99.90;;;;;;5054345;28;20132;-81
2022/06/24 11:15:48;;;;;;;6.40;4.20;;;19.20;99.90;;;;;;5054126;28;20091;-81
2022/06/24 11:18:22;;;;;;;5.85;4.10;;;19.20;99.90;;;;;;5072491;28;20394;-81
2022/06/24 11:20:54;;;;;;;8.05;4.53;;;19.30;99.90;;;;;;5054051;28;20055;-81
2022/06/24 11:23:22;;;;;;;6.65;4.20;;;19.50;99.90;;;;;;5072168;28;20102;-81
2022/06/24 11:25:56;;;;;;;5.22;4.53;;;19.70;99.90;;;;;;5053968;28;20084;-81
2022/06/24 11:28:22;;;;;;;6.35;4.10;;;;;;;;;;5054356;28;20059;-81
2022/06/24 11:30:50;;;;;;;8.10;4.57;;;20.20;99.90;;;;;;5053831;28;20048;-81
2022/06/24 11:33:16;;;;;;;6.60;4.28;;;;;;;;;;5072002;28;20087;-81
2022/06/24 11:35:42;;;;;;;6.78;4.35;;;;;;;;;;5053935;28;20047;-82
2022/06/24 11:38:09;;;;;;;5.85;4.07;;;20.90;99.90;;;;;;5037097;28;20148;-81
2022/06/24 11:40:36;;;;;;;5.95;4.50;;;21.00;99.90;;;;;;5072090;28;20049;-81
2022/06/24 11:43:07;;;;;;;6.10;4.32;;;21.00;99.90;;;;;;5037558;28;20411;-82
2022/06/24 11:45:40;;;;;;;6.07;4.20;;;21.40;99.90;;;;;;5054187;28;20053;-81
2022/06/24 11:48:09;;;;;;;7.45;4.53;;;23.70;99.90;;;;;;5073710;28;20049;-82
2022/06/24 11:50:35;;;;;;;5.43;4.30;;;21.40;99.90;;;;;;5072274;28;20052;-82
2022/06/24 11:53:03;;;;;;;5.30;4.60;;;21.10;99.90;;;;;;5072115;28;20052;-82
2022/06/24 11:55:37;;;;;;;6.80;4.85;;;24.00;99.90;;;;;;5057504;28;20083;-82
2022/06/24 11:58:05;;;;;;;7.85;4.95;;;21.20;99.90;;;;;;5075990;28;20053;-82
2022/06/24 12:00:36;;;;;;;8.18;5.20;;;18.90;99.90;;;;;;5075251;28;20171;-82
2022/06/24 12:03:04;;;;;;;11.55;5.10;;;21.40;99.90;;;;;;5075293;28;20051;-82
2022/06/24 12:05:32;;;;;;;10.00;5.32;;;21.40;99.90;;;;;;5040334;28;20053;-82
2022/06/24 12:07:59;;;;;;;7.10;5.10;;;21.40;99.90;;;;;;5075027;28;20049;-81
2022/06/24 12:10:25;;;;;;;9.25;5.53;;;21.50;99.90;;;;;;5040138;28;20056;-82
2022/06/24 12:12:57;;;;;;;8.18;5.55;;;21.50;99.90;;;;;;5057395;28;20059;-82
2022/06/24 12:15:33;;;;;;;5.85;4.82;;;21.60;99.90;;;;;;5075197;28;20049;-82
2022/06/24 12:17:59;;;;;;;8.48;5.10;;;21.70;99.90;;;;;;5040448;28;20072;-82
2022/06/24 12:20:27;;;;;;;8.88;5.00;;;21.90;99.90;;;;;;5074999;28;20057;-82
2022/06/24 12:23:15;;;;;;;9.48;4.68;;;21.80;99.90;;;;;;5040584;28;20053;-82
2022/06/24 12:25:43;;;;;;;7.88;4.63;;;22.00;99.90;;;;;;5040464;28;20516;-82
2022/06/24 12:28:27;;;;;;;6.60;4.70;;;22.20;99.90;;;;;;5056830;28;20503;-82
2022/06/24 12:31:00;;;;;;;7.13;5.00;;;22.40;99.90;;;;;;5056943;28;20086;-82
2022/06/24 12:33:28;;;;;;;7.72;5.10;;;22.50;99.90;;;;;;5057240;28;20131;-82
2022/06/24 12:36:13;;;;;;;7.15;5.22;;;22.50;99.90;;;;;;5056555;28;20049;-82
2022/06/24 12:38:42;;;;;;;7.72;5.28;;;22.30;99.90;;;;;;5074903;28;20059;-82
2022/06/24 12:41:09;;;;;;;7.47;5.50;;;22.60;99.90;;;;;;5056626;28;20595;-81
2022/06/24 12:43:35;;;;;;;8.52;4.95;;;22.50;99.90;;;;;;5056582;28;20088;-82
2022/06/24 12:46:05;;;;;;;6.88;4.88;;;22.70;99.90;;;;;;5056304;28;20080;-81
2022/06/24 12:51:23;;;;;;;8.52;5.60;;;23.00;99.90;;;;;;5074847;28;20045;-82
2022/06/24 12:53:50;;;;;;;10.73;6.00;;;22.90;99.90;;;;;;5074569;28;20526;-81
2022/06/24 12:56:16;;;;;;;10.50;6.35;;;22.90;99.90;;;;;;5040047;28;20067;-81
2022/06/24 12:58:41;;;;;;;9.82;7.07;;;23.50;99.90;;;;;;5074061;28;20406;-81
2022/06/24 13:01:07;;;;;;;8.80;6.82;;;23.20;99.90;;;;;;5073685;28;20045;-81
2022/06/24 13:03:33;;;;;;;9.38;5.68;;;22.80;99.90;;;;;;5074308;28;20123;-81
2022/06/24 13:05:58;;;;;;;8.20;5.78;;;24.30;99.90;;;;;;5038285;28;20067;-81
2022/06/24 13:08:24;;;;;;;7.45;5.38;;;23.40;99.90;;;;;;5056274;28;20048;-81